CheckWX is a tool to help pilots better visualize weather data.  It is not intended as a substitute for an official pre-flight weather briefing.

07:40:42 UTC

KMHR TAF
Sacramento Mather Airport
Sacramento, California, USA
KMHR 200534Z 2006/2106 20006KT P6SM SKC FM200800 16005KT P6SM SKC FM202000 21007KT P6SM SKC AMD NOT SKED

Aug-20@
06:00 UTC

Aug-20 @ 06:00 UTC

Aug-20@
08:00 UTC

Aug-20 @ 08:00 UTC

KMHR 200534Z 2006/2106 20006KT P6SM SKC
Wind
  • 200° at 6 KTS
Cloud Levels
  • Clear skies

Aug-20@
08:00 UTC

Aug-20 @ 08:00 UTC

Aug-20@
20:00 UTC

Aug-20 @ 20:00 UTC

FM200800 16005KT P6SM SKC

From

From Standard forecast or significant change

Wind
  • 160° at 5 KTS
Cloud Levels
  • Clear skies

Aug-20@
20:00 UTC

Aug-20 @ 20:00 UTC

Aug-21@
06:00 UTC

Aug-21 @ 06:00 UTC

FM202000 21007KT P6SM SKC AMD NOT SKED

From

From Standard forecast or significant change

Wind
  • 210° at 7 KTS
Cloud Levels
  • Clear skies